Time;durP1;ratioP1;P1;durP2;ratioP2;P2;SDS_P1;SDS_P2;PMS_P1;PMS_P2;Temp;Humidity;BMP_temperature;BMP_pressure;BME280_temperature;BME280_humidity;BME280_pressure;Samples;Min_cycle;Max_cycle;Signal;HPM_P1;HPM_P2
2022/07/22 00:00:44;;;;;;;7.07;6.37;;;22.00;99.90;;;;;;5054159;28;20858;-66
2022/07/22 00:03:11;;;;;;;8.80;7.60;;;22.10;99.90;;;;;;5054155;28;20489;-67
2022/07/22 00:05:39;;;;;;;7.47;6.97;;;22.10;99.90;;;;;;5053830;28;20537;-67
2022/07/22 00:08:06;;;;;;;8.20;7.53;;;22.00;99.90;;;;;;5054418;28;20449;-67
2022/07/22 00:10:33;;;;;;;7.87;7.10;;;21.90;99.90;;;;;;5052701;28;20573;-66
2022/07/22 00:13:02;;;;;;;7.97;7.27;;;21.70;99.90;;;;;;5053840;28;20449;-67
2022/07/22 00:15:29;;;;;;;7.73;7.03;;;21.70;99.90;;;;;;5053997;28;20453;-67
2022/07/22 00:17:56;;;;;;;8.60;7.40;;;21.70;99.90;;;;;;5053717;28;20480;-67
2022/07/22 00:20:23;;;;;;;8.33;7.53;;;21.90;99.90;;;;;;5053952;28;20476;-67
2022/07/22 00:22:51;;;;;;;8.47;7.53;;;22.00;99.90;;;;;;5054128;28;20554;-68
2022/07/22 00:25:18;;;;;;;7.57;6.87;;;21.90;99.90;;;;;;5053684;28;20480;-67
2022/07/22 00:27:45;;;;;;;8.30;7.17;;;22.00;99.90;;;;;;5053863;28;20571;-67
2022/07/22 00:30:14;;;;;;;7.83;7.03;;;21.90;99.90;;;;;;5053915;28;20894;-68
2022/07/22 00:32:41;;;;;;;10.30;7.10;;;21.70;99.90;;;;;;5053843;28;20781;-67
2022/07/22 00:35:09;;;;;;;8.03;7.23;;;21.70;99.90;;;;;;5053720;28;20532;-66
2022/07/22 00:37:36;;;;;;;9.43;7.13;;;21.50;99.90;;;;;;5053486;28;20488;-67
2022/07/22 00:40:03;;;;;;;8.40;7.67;;;21.60;99.90;;;;;;5053367;28;20489;-67
2022/07/22 00:42:31;;;;;;;8.30;7.20;;;21.60;99.90;;;;;;5053272;28;20520;-68
2022/07/22 00:44:58;;;;;;;7.80;7.20;;;21.60;99.90;;;;;;5053572;28;20445;-68
2022/07/22 00:47:26;;;;;;;8.73;7.90;;;21.50;99.90;;;;;;5053689;28;20445;-67
2022/07/22 00:49:53;;;;;;;8.73;7.30;;;21.60;99.90;;;;;;5053477;28;20477;-67
2022/07/22 00:52:21;;;;;;;8.73;6.80;;;21.60;99.90;;;;;;5053431;28;20445;-67
2022/07/22 00:54:48;;;;;;;10.10;7.50;;;21.60;99.90;;;;;;5053566;28;20508;-66
2022/07/22 00:57:15;;;;;;;7.53;6.67;;;21.50;99.90;;;;;;5053026;28;20571;-67
2022/07/22 00:59:43;;;;;;;6.77;6.23;;;21.50;99.90;;;;;;5053235;28;20441;-67
2022/07/22 01:02:10;;;;;;;8.20;6.97;;;21.50;99.90;;;;;;5053168;28;20449;-66
2022/07/22 01:04:40;;;;;;;9.07;8.17;;;21.50;99.90;;;;;;5053068;28;20547;-66
2022/07/22 01:07:08;;;;;;;7.63;6.93;;;21.40;99.90;;;;;;5052942;28;20447;-66
2022/07/22 01:09:35;;;;;;;8.27;7.50;;;21.30;99.90;;;;;;5053056;28;20477;-66
2022/07/22 01:12:03;;;;;;;8.00;7.20;;;21.30;99.90;;;;;;5053183;28;20540;-66
2022/07/22 01:14:30;;;;;;;8.47;7.17;;;21.20;99.90;;;;;;5052949;28;20438;-66
2022/07/22 01:16:57;;;;;;;8.20;7.50;;;21.20;99.90;;;;;;5052842;28;20544;-67
2022/07/22 01:19:24;;;;;;;11.07;7.57;;;21.20;99.90;;;;;;5052994;28;20481;-66
2022/07/22 01:21:53;;;;;;;9.33;8.53;;;21.20;99.90;;;;;;5052446;28;20446;-66
2022/07/22 01:24:21;;;;;;;8.20;7.40;;;21.20;99.90;;;;;;5053191;28;20537;-66
2022/07/22 01:26:48;;;;;;;8.40;7.80;;;21.30;99.90;;;;;;5053338;28;20528;-66
2022/07/22 01:29:15;;;;;;;9.80;8.10;;;21.30;99.90;;;;;;5052642;28;20449;-66
2022/07/22 01:31:42;;;;;;;8.67;7.77;;;21.30;99.90;;;;;;5052777;28;20445;-67
2022/07/22 01:34:09;;;;;;;8.60;7.80;;;21.20;99.90;;;;;;5053070;28;20441;-68
2022/07/22 01:36:36;;;;;;;8.50;7.60;;;21.30;99.90;;;;;;5052889;28;20481;-67
2022/07/22 01:39:05;;;;;;;8.73;8.03;;;21.30;99.90;;;;;;5053045;28;20457;-67
2022/07/22 01:41:32;;;;;;;8.73;7.83;;;21.40;99.90;;;;;;5052570;28;20496;-67
2022/07/22 01:44:04;;;;;;;8.33;7.40;;;21.40;99.90;;;;;;5052989;28;20468;-67
2022/07/22 01:46:31;;;;;;;8.33;7.53;;;21.30;99.90;;;;;;5052894;28;20472;-67
2022/07/22 01:48:59;;;;;;;9.53;7.93;;;21.10;99.90;;;;;;5052756;28;20944;-67
2022/07/22 01:51:26;;;;;;;9.20;8.30;;;21.10;99.90;;;;;;5052809;28;20465;-67
2022/07/22 01:53:53;;;;;;;7.60;7.00;;;21.30;99.90;;;;;;5052890;28;20445;-67
2022/07/22 01:56:22;;;;;;;8.67;7.70;;;21.40;99.90;;;;;;5052920;28;20536;-67
2022/07/22 01:58:49;;;;;;;8.67;7.87;;;21.40;99.90;;;;;;5052895;28;20477;-66
2022/07/22 02:01:16;;;;;;;9.57;8.57;;;21.20;99.90;;;;;;5052448;28;20547;-66
2022/07/22 02:03:43;;;;;;;9.60;8.70;;;21.00;99.90;;;;;;5052676;28;20527;-67
2022/07/22 02:06:10;;;;;;;9.50;8.50;;;21.20;99.90;;;;;;5052387;28;20459;-68
2022/07/22 02:08:37;;;;;;;9.00;8.20;;;21.20;99.90;;;;;;5052387;28;20939;-67
2022/07/22 02:11:05;;;;;;;11.77;8.80;;;21.00;99.90;;;;;;5052555;28;20461;-67
2022/07/22 02:13:33;;;;;;;8.70;7.37;;;20.90;99.90;;;;;;5052415;28;20957;-67
2022/07/22 02:16:00;;;;;;;8.83;8.00;;;21.00;99.90;;;;;;5052669;28;20540;-67
2022/07/22 02:18:27;;;;;;;8.90;8.20;;;21.00;99.90;;;;;;5052745;28;20564;-67
2022/07/22 02:20:55;;;;;;;9.47;8.57;;;21.00;99.90;;;;;;5052731;28;20515;-67
2022/07/22 02:23:22;;;;;;;9.90;8.90;;;21.00;99.90;;;;;;5052577;28;20539;-67
2022/07/22 02:25:49;;;;;;;10.63;8.20;;;20.80;99.90;;;;;;5052443;28;20430;-66
2022/07/22 02:28:16;;;;;;;9.17;8.27;;;20.70;99.90;;;;;;5052724;28;20441;-65
2022/07/22 02:30:45;;;;;;;11.97;9.47;;;20.80;99.90;;;;;;5052440;28;20557;-66
2022/07/22 02:33:12;;;;;;;9.53;8.70;;;20.70;99.90;;;;;;5053416;28;20502;-67
2022/07/22 02:35:39;;;;;;;10.20;9.30;;;20.70;99.90;;;;;;5056043;28;21000;-67
2022/07/22 02:38:06;;;;;;;10.60;9.50;;;20.70;99.90;;;;;;5056109;28;20527;-66
2022/07/22 02:40:34;;;;;;;10.83;9.83;;;20.70;99.90;;;;;;5055850;28;20489;-66
2022/07/22 02:43:01;;;;;;;11.23;9.43;;;20.70;99.90;;;;;;5055956;28;20456;-66
2022/07/22 02:45:29;;;;;;;10.43;9.43;;;20.70;99.90;;;;;;5055759;28;20971;-66
2022/07/22 02:47:57;;;;;;;11.00;10.10;;;20.70;99.90;;;;;;5056041;28;20441;-66
2022/07/22 02:50:25;;;;;;;12.03;10.90;;;20.70;99.90;;;;;;5056026;28;20481;-66
2022/07/22 02:52:53;;;;;;;10.73;9.80;;;20.60;99.90;;;;;;5055947;28;20449;-66
2022/07/22 02:55:20;;;;;;;10.40;9.47;;;20.50;99.90;;;;;;5055602;28;20529;-66
2022/07/22 02:57:47;;;;;;;10.30;9.40;;;20.60;99.90;;;;;;5055932;28;20487;-66
2022/07/22 03:00:16;;;;;;;12.10;9.83;;;20.60;99.90;;;;;;5055507;28;20459;-66
2022/07/22 03:02:43;;;;;;;10.87;9.87;;;20.50;99.90;;;;;;5055449;28;20537;-65
2022/07/22 03:05:12;;;;;;;10.63;9.60;;;20.40;99.90;;;;;;5055438;28;20524;-67
2022/07/22 03:07:39;;;;;;;11.90;10.90;;;20.30;99.90;;;;;;5056032;28;20843;-67
2022/07/22 03:10:08;;;;;;;12.20;10.10;;;20.30;99.90;;;;;;5055257;28;20580;-66
2022/07/22 03:12:35;;;;;;;11.37;9.83;;;20.30;99.90;;;;;;5055219;28;20504;-67
2022/07/22 03:15:02;;;;;;;10.93;10.03;;;20.40;99.90;;;;;;5055608;28;20540;-67
2022/07/22 03:17:29;;;;;;;10.20;9.30;;;20.30;99.90;;;;;;5055408;28;20595;-67
2022/07/22 03:19:56;;;;;;;11.70;10.50;;;20.10;99.90;;;;;;5055387;28;20872;-67
2022/07/22 03:22:25;;;;;;;10.53;9.60;;;19.90;99.90;;;;;;5055477;28;20893;-67
2022/07/22 03:24:52;;;;;;;10.33;9.50;;;19.90;99.90;;;;;;5055330;28;20477;-67
2022/07/22 03:27:19;;;;;;;11.63;10.53;;;19.80;99.90;;;;;;5055287;28;20524;-66
2022/07/22 03:29:46;;;;;;;13.57;11.20;;;19.80;99.90;;;;;;5055264;28;20567;-68
2022/07/22 03:32:13;;;;;;;11.90;10.80;;;19.80;99.90;;;;;;5055190;28;20503;-68
2022/07/22 03:34:41;;;;;;;10.70;9.70;;;19.80;99.90;;;;;;5054876;28;20536;-67
2022/07/22 03:37:12;;;;;;;12.90;11.60;;;19.90;99.90;;;;;;5055293;28;20563;-68
2022/07/22 03:39:41;;;;;;;13.93;11.00;;;20.00;99.90;;;;;;5055195;28;20930;-67
2022/07/22 03:42:08;;;;;;;12.97;10.70;;;19.90;99.90;;;;;;5054753;28;20564;-66
2022/07/22 03:44:35;;;;;;;11.60;10.60;;;19.70;99.90;;;;;;5054677;28;20452;-66
2022/07/22 03:47:02;;;;;;;11.37;10.20;;;19.60;99.90;;;;;;5054739;28;20891;-67
2022/07/22 03:49:31;;;;;;;13.37;12.07;;;19.60;99.90;;;;;;5054904;28;20470;-67
2022/07/22 03:51:58;;;;;;;11.37;10.47;;;19.60;99.90;;;;;;5054760;28;20539;-67
2022/07/22 03:54:25;;;;;;;12.10;10.97;;;19.60;99.90;;;;;;5055278;28;20445;-67
2022/07/22 03:56:54;;;;;;;12.37;11.17;;;19.60;99.90;;;;;;5054697;28;20444;-67
2022/07/22 03:59:21;;;;;;;13.47;12.00;;;19.60;99.90;;;;;;5054736;28;20491;-67
2022/07/22 04:01:48;;;;;;;11.63;10.63;;;19.70;99.90;;;;;;5054658;28;20436;-66
2022/07/22 04:04:15;;;;;;;11.33;10.23;;;19.70;99.90;;;;;;5054663;28;20503;-66
2022/07/22 04:06:42;;;;;;;12.23;10.93;;;19.70;99.90;;;;;;5054475;28;20795;-67
2022/07/22 04:09:09;;;;;;;10.70;9.70;;;19.80;99.90;;;;;;5054586;28;20572;-66
2022/07/22 04:11:37;;;;;;;12.40;10.80;;;19.80;99.90;;;;;;5054554;28;20532;-67
2022/07/22 04:14:05;;;;;;;11.73;10.60;;;19.80;99.90;;;;;;5054408;28;20481;-68
2022/07/22 04:16:32;;;;;;;12.40;11.17;;;19.80;99.90;;;;;;5054256;28;20858;-68
2022/07/22 04:18:59;;;;;;;18.50;11.70;;;19.70;99.90;;;;;;5054016;28;20591;-67
2022/07/22 04:21:27;;;;;;;11.27;9.50;;;19.70;99.90;;;;;;5054090;28;20833;-67
2022/07/22 04:23:54;;;;;;;11.50;10.40;;;19.60;99.90;;;;;;5054024;28;20994;-67
2022/07/22 04:26:21;;;;;;;12.50;11.20;;;19.60;99.90;;;;;;5053884;28;20477;-66
2022/07/22 04:28:49;;;;;;;13.27;12.07;;;19.50;99.90;;;;;;5054217;28;20469;-66
2022/07/22 04:31:17;;;;;;;10.70;9.80;;;19.60;99.90;;;;;;5054242;28;20469;-66
2022/07/22 04:33:44;;;;;;;12.70;11.53;;;19.60;99.90;;;;;;5054100;28;20524;-66
2022/07/22 04:36:12;;;;;;;12.73;11.53;;;19.60;99.90;;;;;;5053705;28;20449;-66
2022/07/22 04:38:39;;;;;;;15.63;12.10;;;19.70;99.90;;;;;;5053924;28;20481;-67
2022/07/22 04:41:06;;;;;;;11.97;10.33;;;19.70;99.90;;;;;;5053523;28;20524;-67
2022/07/22 04:43:33;;;;;;;11.60;10.60;;;19.80;99.90;;;;;;5053632;28;20460;-67
2022/07/22 04:46:01;;;;;;;12.40;11.30;;;19.80;99.90;;;;;;5053920;28;20484;-67
2022/07/22 04:48:29;;;;;;;12.07;10.67;;;19.90;99.90;;;;;;5053761;28;20481;-66
2022/07/22 04:51:00;;;;;;;11.10;9.93;;;19.90;99.90;;;;;;5053703;28;20469;-66
2022/07/22 04:53:27;;;;;;;11.07;10.00;;;19.90;99.90;;;;;;5053723;28;20430;-66
2022/07/22 04:55:55;;;;;;;13.13;11.73;;;20.00;99.90;;;;;;5053193;28;20476;-67
2022/07/22 04:58:22;;;;;;;12.63;11.53;;;20.00;99.90;;;;;;5053180;28;20477;-66
2022/07/22 05:00:49;;;;;;;12.27;11.07;;;20.00;99.90;;;;;;5053193;28;20556;-67
2022/07/22 05:03:18;;;;;;;12.47;11.23;;;20.10;99.90;;;;;;5053603;28;20479;-66
2022/07/22 05:05:46;;;;;;;11.93;10.83;;;20.10;99.90;;;;;;5053183;28;20818;-67
2022/07/22 05:08:14;;;;;;;13.60;10.73;;;20.00;99.90;;;;;;5053290;28;20434;-66
2022/07/22 05:10:41;;;;;;;11.53;10.47;;;19.90;99.90;;;;;;5053618;28;20501;-67
2022/07/22 05:13:08;;;;;;;13.17;11.87;;;19.90;99.90;;;;;;5053344;28;20784;-67
2022/07/22 05:15:35;;;;;;;12.83;11.57;;;19.90;99.90;;;;;;5053330;28;20473;-67
2022/07/22 05:18:02;;;;;;;13.37;12.07;;;19.80;99.90;;;;;;5053371;28;20520;-68
2022/07/22 05:20:30;;;;;;;13.00;11.80;;;19.90;99.90;;;;;;5053131;28;20496;-67
2022/07/22 05:22:58;;;;;;;14.03;12.53;;;19.90;99.90;;;;;;5053087;28;20477;-67
2022/07/22 05:25:25;;;;;;;13.17;11.63;;;19.80;99.90;;;;;;5052848;28;20467;-66
2022/07/22 05:27:55;;;;;;;13.70;12.30;;;19.90;99.90;;;;;;5052816;28;20451;-66
2022/07/22 05:30:22;;;;;;;13.47;12.27;;;20.00;99.90;;;;;;5052904;28;20469;-67
2022/07/22 05:32:49;;;;;;;12.30;11.00;;;20.20;99.90;;;;;;5052690;28;20441;-67
2022/07/22 05:35:16;;;;;;;13.80;12.50;;;20.30;99.90;;;;;;5052646;28;20544;-67
2022/07/22 05:37:43;;;;;;;12.93;11.30;;;20.30;99.90;;;;;;5052612;28;20444;-67
2022/07/22 05:40:13;;;;;;;13.73;12.23;;;20.30;99.90;;;;;;5052328;28;20550;-67
2022/07/22 05:42:40;;;;;;;12.07;11.00;;;20.30;99.90;;;;;;5052818;28;20429;-67
2022/07/22 05:45:08;;;;;;;13.03;11.83;;;20.30;99.90;;;;;;5052281;28;20481;-67
2022/07/22 05:47:35;;;;;;;12.53;11.30;;;20.10;99.90;;;;;;5052579;28;20453;-68
2022/07/22 05:50:03;;;;;;;12.33;11.07;;;20.20;99.90;;;;;;5052464;28;20461;-66
2022/07/22 05:52:30;;;;;;;11.80;10.60;;;20.40;99.90;;;;;;5052403;28;20453;-66
2022/07/22 05:55:00;;;;;;;13.43;11.97;;;20.40;99.90;;;;;;5052502;28;20988;-67
2022/07/22 05:57:29;;;;;;;13.27;12.07;;;20.40;99.90;;;;;;5052925;28;20476;-67
2022/07/22 05:59:56;;;;;;;14.73;13.23;;;20.50;99.90;;;;;;5052541;28;20572;-67
2022/07/22 06:02:23;;;;;;;12.73;11.30;;;20.40;99.90;;;;;;5052497;28;20524;-67
2022/07/22 06:04:51;;;;;;;13.07;11.80;;;20.30;99.90;;;;;;5052332;28;20460;-67
2022/07/22 06:07:18;;;;;;;18.53;12.10;;;20.50;99.90;;;;;;5053811;28;20540;-67
2022/07/22 06:09:46;;;;;;;12.70;11.30;;;20.50;99.90;;;;;;5056482;28;20509;-67
2022/07/22 06:12:13;;;;;;;12.77;11.57;;;20.60;99.90;;;;;;5056527;28;20473;-67
2022/07/22 06:14:41;;;;;;;14.10;12.70;;;20.70;99.90;;;;;;5056609;28;20445;-67
2022/07/22 06:17:09;;;;;;;13.03;11.87;;;20.80;99.90;;;;;;5056370;28;20827;-67
2022/07/22 06:19:38;;;;;;;15.67;12.67;;;20.90;99.90;;;;;;5055963;28;20568;-67
2022/07/22 06:22:06;;;;;;;13.80;12.50;;;21.00;99.90;;;;;;5056442;28;20449;-67
2022/07/22 06:24:33;;;;;;;15.00;13.37;;;21.00;99.90;;;;;;5056126;28;20537;-67
2022/07/22 06:27:00;;;;;;;13.17;11.93;;;21.10;99.90;;;;;;5056193;28;20528;-67
2022/07/22 06:29:28;;;;;;;15.00;13.40;;;21.10;99.90;;;;;;5055946;28;20519;-66
2022/07/22 06:31:56;;;;;;;13.40;12.10;;;21.00;99.90;;;;;;5055614;28;20536;-66
2022/07/22 06:34:23;;;;;;;13.27;11.93;;;21.10;99.90;;;;;;5055604;28;20437;-67
2022/07/22 06:36:50;;;;;;;13.43;11.90;;;21.30;99.90;;;;;;5055713;28;20535;-66
2022/07/22 06:39:18;;;;;;;15.37;13.70;;;21.30;99.90;;;;;;5055664;28;20591;-66
2022/07/22 06:41:45;;;;;;;13.23;12.00;;;21.40;99.90;;;;;;5055419;28;20560;-66
2022/07/22 06:44:12;;;;;;;14.90;13.17;;;21.40;99.90;;;;;;5055685;28;20449;-66
2022/07/22 06:46:39;;;;;;;14.37;12.93;;;21.50;99.90;;;;;;5055350;28;20445;-67
2022/07/22 06:49:08;;;;;;;14.00;12.60;;;21.50;99.90;;;;;;5055797;28;20445;-67
2022/07/22 06:51:35;;;;;;;14.30;12.67;;;21.60;99.90;;;;;;5055387;28;20506;-67
2022/07/22 06:54:03;;;;;;;13.10;11.90;;;21.70;99.90;;;;;;5055456;28;20425;-67
2022/07/22 06:56:30;;;;;;;12.57;11.37;;;21.80;99.90;;;;;;5055705;28;20553;-67
2022/07/22 06:58:57;;;;;;;14.00;12.70;;;21.90;99.90;;;;;;5055266;28;20579;-67
2022/07/22 07:01:24;;;;;;;13.00;11.60;;;21.90;99.90;;;;;;5055400;28;20548;-66
2022/07/22 07:03:51;;;;;;;13.93;12.57;;;21.90;99.90;;;;;;5055518;28;20477;-67
2022/07/22 07:06:21;;;;;;;13.10;11.63;;;22.00;99.90;;;;;;5037323;28;20455;-67
2022/07/22 07:08:48;;;;;;;13.73;12.10;;;22.00;99.90;;;;;;5055178;28;20481;-67
2022/07/22 07:11:15;;;;;;;12.63;11.40;;;22.10;99.90;;;;;;5055448;28;20469;-67
2022/07/22 07:13:42;;;;;;;14.00;12.60;;;22.10;99.90;;;;;;5054834;28;20532;-67
2022/07/22 07:16:10;;;;;;;13.33;12.03;;;22.00;99.90;;;;;;5055106;28;20453;-67
2022/07/22 07:18:37;;;;;;;11.10;10.10;;;22.20;99.90;;;;;;5054593;28;20853;-60
2022/07/22 07:21:05;;;;;;;13.70;12.27;;;22.30;99.90;;;;;;5054934;28;20469;-60
2022/07/22 07:23:34;;;;;;;11.53;9.40;;;22.70;99.90;;;;;;5055326;28;20467;-59
2022/07/22 07:26:01;;;;;;;13.03;11.70;;;23.00;99.90;;;;;;5055001;28;20553;-59
2022/07/22 07:28:28;;;;;;;12.67;11.20;;;23.20;99.90;;;;;;5055027;28;20487;-59
2022/07/22 07:30:55;;;;;;;11.30;10.40;;;23.30;99.90;;;;;;5055026;28;20802;-60
2022/07/22 07:33:22;;;;;;;10.30;9.20;;;24.00;99.90;;;;;;5054561;28;20481;-60
2022/07/22 07:35:50;;;;;;;10.73;9.73;;;24.70;99.90;;;;;;5054996;28;20445;-60
2022/07/22 07:38:20;;;;;;;13.63;10.47;;;25.70;99.90;;;;;;5054725;28;20445;-61
2022/07/22 07:40:49;;;;;;;27.10;11.17;;;26.30;99.90;;;;;;5054500;28;20480;-60
2022/07/22 07:43:16;;;;;;;12.43;11.07;;;26.40;99.90;;;;;;5054582;28;20481;-60
2022/07/22 07:45:44;;;;;;;11.80;10.60;;;26.20;99.90;;;;;;5054667;28;20552;-60
2022/07/22 07:48:11;;;;;;;13.97;11.27;;;26.10;99.90;;;;;;5054992;28;20549;-60
2022/07/22 07:50:38;;;;;;;12.70;11.50;;;26.50;99.90;;;;;;5054390;28;21040;-60
2022/07/22 07:53:06;;;;;;;11.20;10.20;;;26.60;99.90;;;;;;5054307;28;20449;-60
2022/07/22 07:55:35;;;;;;;11.37;10.37;;;26.80;99.90;;;;;;5054778;28;20477;-60
2022/07/22 07:58:04;;;;;;;10.53;9.63;;;27.10;99.90;;;;;;5054236;28;20934;-60
2022/07/22 08:00:33;;;;;;;11.30;10.30;;;27.90;99.90;;;;;;5054287;28;20495;-60
2022/07/22 08:03:00;;;;;;;12.10;11.00;;;27.80;99.90;;;;;;5054327;28;20449;-60
2022/07/22 08:05:28;;;;;;;10.50;9.40;;;27.70;99.90;;;;;;5054424;28;20942;-60
2022/07/22 08:07:55;;;;;;;12.20;11.10;;;27.90;99.90;;;;;;5054050;28;20473;-59
2022/07/22 08:10:23;;;;;;;12.07;11.07;;;27.70;99.90;;;;;;5054625;28;20564;-61
2022/07/22 08:12:50;;;;;;;10.77;9.80;;;28.20;99.90;;;;;;5053949;28;21004;-60
2022/07/22 08:15:19;;;;;;;12.30;11.30;;;28.60;99.90;;;;;;5053836;28;20449;-60
2022/07/22 08:17:46;;;;;;;13.23;11.07;;;28.90;99.90;;;;;;5054161;28;20456;-60
2022/07/22 08:20:13;;;;;;;10.43;9.53;;;29.00;99.90;;;;;;5053772;28;20571;-61
2022/07/22 08:22:40;;;;;;;11.17;10.10;;;29.30;99.80;;;;;;5053654;28;20445;-61
2022/07/22 08:25:08;;;;;;;13.27;10.90;;;29.20;99.90;;;;;;5053939;28;20500;-61
2022/07/22 08:27:35;;;;;;;14.03;9.90;;;29.30;98.70;;;;;;5054207;28;20452;-60
2022/07/22 08:30:04;;;;;;;13.37;10.60;;;29.80;99.00;;;;;;5053293;28;20462;-60
2022/07/22 08:32:32;;;;;;;12.60;11.40;;;30.30;99.00;;;;;;5052816;28;20448;-61
2022/07/22 08:35:00;;;;;;;11.53;10.33;;;30.20;97.00;;;;;;5053729;28;20541;-60
2022/07/22 08:37:28;;;;;;;12.07;10.77;;;29.80;96.90;;;;;;5053552;28;20450;-61
2022/07/22 08:39:55;;;;;;;11.00;9.97;;;29.50;97.60;;;;;;5053481;28;20489;-61
2022/07/22 08:42:24;;;;;;;9.20;8.40;;;30.30;96.30;;;;;;5053531;28;20448;-61
2022/07/22 08:44:51;;;;;;;12.00;9.23;;;30.90;96.60;;;;;;5053445;28;20476;-61
2022/07/22 08:47:22;;;;;;;9.93;8.93;;;30.90;94.50;;;;;;5053388;28;20464;-60
2022/07/22 08:49:51;;;;;;;10.47;9.40;;;31.30;93.90;;;;;;5053738;28;20500;-60
2022/07/22 08:52:18;;;;;;;11.23;10.03;;;31.20;94.00;;;;;;5053094;28;20524;-60
2022/07/22 08:54:45;;;;;;;11.50;10.07;;;30.50;94.60;;;;;;5053230;28;20437;-60
2022/07/22 08:57:12;;;;;;;15.03;9.63;;;30.60;94.00;;;;;;5053259;28;20456;-60
2022/07/22 08:59:50;;;;;;;10.63;9.63;;;;;;;;;;5052927;28;20558;-60
2022/07/22 09:02:17;;;;;;;10.73;9.70;;;31.40;94.20;;;;;;5052669;28;20465;-60
2022/07/22 09:04:58;;;;;;;9.50;8.70;;;31.50;93.10;;;;;;5052761;28;20536;-60
2022/07/22 09:07:30;;;;;;;9.97;8.97;;;31.30;92.00;;;;;;5053006;28;20851;-61
2022/07/22 09:09:59;;;;;;;9.33;8.50;;;31.40;91.40;;;;;;5053064;28;20474;-61
2022/07/22 09:12:29;;;;;;;9.47;8.67;;;30.80;91.20;;;;;;5052648;28;20484;-62
2022/07/22 09:14:58;;;;;;;8.57;7.77;;;30.90;93.10;;;;;;5053130;28;20437;-62
2022/07/22 09:17:30;;;;;;;11.30;10.27;;;31.60;91.60;;;;;;5053235;28;20455;-62
2022/07/22 09:20:01;;;;;;;10.43;9.40;;;31.30;91.70;;;;;;5053183;28;20488;-62
2022/07/22 09:22:38;;;;;;;11.57;10.57;;;31.20;92.30;;;;;;5053199;28;20811;-62
2022/07/22 09:25:20;;;;;;;9.73;8.80;;;31.70;91.60;;;;;;5052708;28;20976;-62
2022/07/22 09:27:48;;;;;;;11.10;8.97;;;31.70;91.20;;;;;;5052642;28;20448;-62
2022/07/22 09:30:17;;;;;;;10.57;9.20;;;31.60;89.70;;;;;;5052450;28;20501;-62
2022/07/22 09:32:45;;;;;;;9.73;8.90;;;32.20;90.20;;;;;;5052705;28;20476;-63
2022/07/22 09:35:14;;;;;;;9.10;8.20;;;32.10;88.10;;;;;;5052637;28;20455;-63
2022/07/22 09:37:49;;;;;;;9.37;8.67;;;32.00;88.80;;;;;;5052730;28;20824;-63
2022/07/22 09:40:19;;;;;;;10.20;9.27;;;32.80;90.00;;;;;;5052800;28;20496;-63
2022/07/22 09:42:49;;;;;;;10.20;9.17;;;32.80;88.00;;;;;;5052386;28;20513;-60
2022/07/22 09:45:17;;;;;;;10.90;9.80;;;32.90;89.10;;;;;;5052654;28;20535;-60
2022/07/22 09:47:45;;;;;;;10.07;9.17;;;32.10;86.20;;;;;;5052402;28;20531;-60
2022/07/22 09:50:19;;;;;;;8.87;8.00;;;31.30;86.30;;;;;;5052376;28;20492;-61
2022/07/22 09:52:47;;;;;;;10.83;9.73;;;32.00;86.60;;;;;;5052645;28;20455;-61
2022/07/22 09:55:16;;;;;;;10.17;9.07;;;32.50;86.80;;;;;;5052173;28;20433;-61
2022/07/22 09:57:43;;;;;;;8.50;7.37;;;33.20;84.40;;;;;;5052599;28;20445;-61
2022/07/22 10:00:12;;;;;;;9.10;8.40;;;33.10;83.10;;;;;;5052640;28;20611;-61
2022/07/22 10:02:45;;;;;;;8.10;7.50;;;33.20;84.70;;;;;;5052403;28;21014;-61
2022/07/22 10:05:13;;;;;;;9.90;9.00;;;33.40;81.60;;;;;;5052281;28;20413;-61
2022/07/22 10:07:43;;;;;;;9.90;9.10;;;32.90;83.20;;;;;;5052281;28;20459;-61
2022/07/22 10:10:12;;;;;;;10.50;8.03;;;32.80;80.60;;;;;;5052007;28;20831;-61
2022/07/22 10:12:40;;;;;;;9.27;8.57;;;33.00;80.50;;;;;;5052001;28;20812;-61
2022/07/22 10:15:08;;;;;;;8.90;8.00;;;32.50;84.90;;;;;;5052026;28;20451;-61
2022/07/22 10:17:38;;;;;;;11.10;8.23;;;33.20;79.40;;;;;;5052376;28;20449;-62
2022/07/22 10:20:06;;;;;;;8.50;7.80;;;32.80;80.20;;;;;;5051902;28;21092;-62
2022/07/22 10:22:50;;;;;;;8.57;7.80;;;32.80;81.00;;;;;;5052400;28;20807;-62
2022/07/22 10:25:19;;;;;;;9.07;8.27;;;32.70;82.00;;;;;;5051699;28;20416;-63
2022/07/22 10:27:48;;;;;;;8.77;7.97;;;33.00;80.90;;;;;;5051992;28;20937;-62
2022/07/22 10:30:17;;;;;;;8.77;8.17;;;33.50;80.50;;;;;;5051919;28;20456;-62
2022/07/22 10:32:45;;;;;;;10.60;9.03;;;33.10;77.70;;;;;;5051496;28;20452;-62
2022/07/22 10:35:26;;;;;;;11.73;8.63;;;32.80;80.00;;;;;;5052187;28;20445;-62
2022/07/22 10:37:57;;;;;;;9.07;8.30;;;32.70;78.70;;;;;;5052200;28;20471;-62
2022/07/22 10:40:28;;;;;;;8.73;7.93;;;34.00;78.40;;;;;;5051192;28;21035;-62
2022/07/22 10:43:10;;;;;;;9.37;8.30;;;34.50;76.80;;;;;;5052005;28;20436;-63
2022/07/22 10:45:40;;;;;;;9.03;8.23;;;34.70;76.10;;;;;;5052131;28;20460;-62
2022/07/22 10:48:09;;;;;;;9.43;8.53;;;33.90;75.10;;;;;;5052067;28;20812;-62
2022/07/22 10:50:42;;;;;;;9.70;9.00;;;33.20;76.10;;;;;;5051954;28;20453;-61
2022/07/22 10:53:12;;;;;;;9.60;8.60;;;34.10;76.20;;;;;;5051807;28;20444;-61
2022/07/22 10:55:40;;;;;;;9.87;9.00;;;33.10;76.40;;;;;;5055396;28;20468;-60
2022/07/22 10:58:45;;;;;;;8.33;7.73;;;33.00;76.50;;;;;;5055759;28;20531;-62
2022/07/22 11:01:14;;;;;;;9.60;8.60;;;33.40;76.20;;;;;;5055203;28;20908;-61
2022/07/22 11:03:42;;;;;;;9.27;8.53;;;33.90;74.30;;;;;;5055062;28;20448;-61
2022/07/22 11:06:15;;;;;;;9.17;8.23;;;32.70;75.60;;;;;;5054931;28;20481;-60
2022/07/22 11:08:46;;;;;;;9.87;8.97;;;32.60;77.00;;;;;;5054962;28;20521;-61
2022/07/22 11:11:13;;;;;;;8.53;7.80;;;32.60;76.80;;;;;;5055108;28;20461;-61
2022/07/22 11:13:43;;;;;;;9.27;8.40;;;33.20;76.90;;;;;;5054824;28;20936;-61
2022/07/22 11:16:21;;;;;;;9.03;8.13;;;33.20;76.70;;;;;;5055052;28;20495;-61
2022/07/22 11:18:51;;;;;;;8.97;8.17;;;33.00;76.80;;;;;;5055039;28;20449;-60
2022/07/22 11:21:20;;;;;;;8.73;7.97;;;33.20;75.50;;;;;;5054559;28;20572;-61
2022/07/22 11:23:51;;;;;;;8.93;8.23;;;33.30;77.30;;;;;;5054716;28;20812;-61
2022/07/22 11:26:25;;;;;;;9.23;7.47;;;33.90;76.50;;;;;;5054508;28;20885;-61
2022/07/22 11:28:53;;;;;;;8.93;8.10;;;34.00;74.10;;;;;;5054160;28;20528;-60
2022/07/22 11:31:20;;;;;;;9.73;7.80;;;33.80;73.30;;;;;;5054079;28;20544;-61
2022/07/22 11:33:47;;;;;;;9.37;8.07;;;34.30;73.40;;;;;;5054732;28;20462;-60
2022/07/22 11:36:15;;;;;;;8.57;7.30;;;34.40;72.30;;;;;;5054215;28;20452;-60
2022/07/22 11:38:47;;;;;;;9.13;8.33;;;33.90;71.70;;;;;;5054597;28;20445;-62
2022/07/22 11:41:18;;;;;;;8.00;7.37;;;33.50;71.60;;;;;;5054285;28;20820;-62
2022/07/22 11:43:47;;;;;;;8.80;7.90;;;34.50;73.70;;;;;;5054796;28;20511;-62
2022/07/22 11:46:15;;;;;;;8.03;7.43;;;34.80;70.60;;;;;;5054483;28;20535;-63
2022/07/22 11:48:43;;;;;;;8.40;7.80;;;35.20;70.70;;;;;;5054492;28;20432;-62
2022/07/22 11:51:12;;;;;;;9.13;8.33;;;35.30;70.50;;;;;;5054520;28;20556;-63
2022/07/22 11:53:39;;;;;;;9.57;8.37;;;35.10;68.90;;;;;;5053938;28;20445;-62
2022/07/22 11:56:08;;;;;;;8.70;8.00;;;35.00;69.50;;;;;;5054332;28;20451;-62
2022/07/22 11:58:40;;;;;;;9.17;7.60;;;34.30;65.30;;;;;;5054349;28;20448;-62
2022/07/22 12:01:09;;;;;;;7.90;7.13;;;33.90;66.00;;;;;;5054270;28;20571;-62
2022/07/22 12:03:38;;;;;;;7.70;7.10;;;34.60;68.00;;;;;;5053908;28;20484;-62
2022/07/22 12:06:08;;;;;;;10.43;7.17;;;34.80;64.60;;;;;;5054263;28;20543;-61
2022/07/22 12:08:40;;;;;;;9.20;6.77;;;35.00;65.10;;;;;;5054248;28;20544;-62
2022/07/22 12:11:07;;;;;;;7.80;7.10;;;35.30;61.20;;;;;;5054280;28;20543;-62
2022/07/22 12:13:35;;;;;;;7.93;7.27;;;35.20;60.90;;;;;;5054002;28;20432;-62
2022/07/22 12:16:18;;;;;;;7.57;7.00;;;34.50;60.50;;;;;;5054496;28;20448;-62
2022/07/22 12:18:53;;;;;;;8.63;7.30;;;34.50;61.20;;;;;;5054316;28;20471;-61
2022/07/22 12:21:21;;;;;;;7.70;7.10;;;35.00;63.00;;;;;;5053905;28;20480;-62
2022/07/22 12:23:52;;;;;;;7.60;7.00;;;34.90;61.80;;;;;;5053646;28;20506;-61
2022/07/22 12:26:19;;;;;;;7.37;6.80;;;35.40;63.00;;;;;;5053862;28;20465;-61
2022/07/22 12:28:46;;;;;;;8.17;7.37;;;35.70;60.50;;;;;;5053866;28;20531;-61
2022/07/22 12:31:15;;;;;;;6.80;6.23;;;35.40;59.30;;;;;;5053805;28;20460;-62
2022/07/22 12:33:49;;;;;;;7.57;6.87;;;35.00;57.50;;;;;;5053718;28;20862;-62
2022/07/22 12:36:16;;;;;;;7.10;6.50;;;35.10;57.70;;;;;;5053816;28;20451;-62
2022/07/22 12:38:43;;;;;;;6.97;6.37;;;34.90;58.50;;;;;;5053839;28;20540;-62
2022/07/22 12:41:30;;;;;;;7.13;6.53;;;35.30;59.60;;;;;;5053165;28;20476;-62
2022/07/22 12:43:57;;;;;;;7.20;6.63;;;34.80;58.60;;;;;;5053254;28;20436;-61